createdAt,value
2019-03-19T00:02:23.758Z,1.70
2019-03-19T00:04:50.590Z,1.70
2019-03-19T00:07:17.514Z,1.60
2019-03-19T00:09:44.336Z,1.60
2019-03-19T00:12:11.270Z,1.70
2019-03-19T00:14:38.172Z,1.70
2019-03-19T00:17:04.984Z,1.70
2019-03-19T00:19:31.818Z,1.70
2019-03-19T00:21:58.626Z,1.80
2019-03-19T00:24:25.514Z,1.70
2019-03-19T00:26:52.447Z,1.80
2019-03-19T00:29:19.245Z,1.80
2019-03-19T00:31:46.177Z,1.70
2019-03-19T00:34:13.021Z,1.70
2019-03-19T00:36:39.822Z,1.70
2019-03-19T00:39:06.842Z,1.70
2019-03-19T00:41:33.682Z,1.70
2019-03-19T00:44:00.587Z,1.80
2019-03-19T00:46:27.389Z,1.90
2019-03-19T00:48:54.224Z,1.90
2019-03-19T00:51:21.122Z,1.90
2019-03-19T00:53:47.925Z,1.90
2019-03-19T00:56:14.822Z,1.80
2019-03-19T00:58:41.626Z,1.90
2019-03-19T01:01:08.522Z,2.10
2019-03-19T01:03:35.349Z,2.10
2019-03-19T01:06:02.258Z,2.10
2019-03-19T01:08:29.061Z,2.00
2019-03-19T01:10:55.894Z,1.90
2019-03-19T01:13:22.719Z,1.90
2019-03-19T01:15:49.614Z,1.90
2019-03-19T01:18:16.437Z,1.90
2019-03-19T01:20:43.226Z,1.90
2019-03-19T01:23:10.127Z,1.80
2019-03-19T01:25:37.071Z,1.80
2019-03-19T01:28:04.078Z,1.90
2019-03-19T01:30:31.022Z,2.00
2019-03-19T01:32:57.866Z,2.00
2019-03-19T01:35:24.679Z,2.00
2019-03-19T01:37:51.685Z,2.00
2019-03-19T01:40:18.623Z,2.00
2019-03-19T01:42:45.412Z,1.90
2019-03-19T01:45:12.632Z,1.80
2019-03-19T01:47:39.691Z,1.70
2019-03-19T01:50:07.058Z,1.70
2019-03-19T01:52:33.970Z,1.70
2019-03-19T01:55:00.927Z,1.70
2019-03-19T01:57:27.845Z,1.70
2019-03-19T01:59:54.644Z,1.70
2019-03-19T02:02:21.585Z,1.70
2019-03-19T02:04:48.479Z,1.60
2019-03-19T02:07:15.302Z,1.50
2019-03-19T02:09:42.162Z,1.40
2019-03-19T02:12:09.095Z,1.30
2019-03-19T02:14:35.907Z,1.20
2019-03-19T02:17:03.050Z,1.20
2019-03-19T02:19:30.066Z,1.10
2019-03-19T02:21:56.968Z,1.10
2019-03-19T02:24:23.807Z,1.20
2019-03-19T02:26:50.593Z,1.30
2019-03-19T02:29:17.396Z,1.20
2019-03-19T02:31:44.244Z,1.00
2019-03-19T02:34:11.130Z,1.10
2019-03-19T02:36:37.963Z,1.00
2019-03-19T02:39:06.523Z,1.00
2019-03-19T02:41:33.427Z,1.00
2019-03-19T02:44:00.328Z,1.00
2019-03-19T02:46:27.179Z,1.00
2019-03-19T02:48:54.090Z,0.90
2019-03-19T02:51:20.906Z,0.80
2019-03-19T02:53:47.883Z,0.80
2019-03-19T02:56:14.738Z,0.60
2019-03-19T02:58:41.633Z,0.40
2019-03-19T03:01:08.659Z,0.30
2019-03-19T03:03:35.558Z,0.30
2019-03-19T03:06:02.459Z,0.40
2019-03-19T03:08:29.287Z,0.50
2019-03-19T03:10:56.304Z,0.50
2019-03-19T03:13:23.105Z,0.50
2019-03-19T03:15:49.939Z,0.50
2019-03-19T03:18:16.862Z,0.40
2019-03-19T03:20:43.756Z,0.30
2019-03-19T03:23:10.574Z,0.30
2019-03-19T03:25:37.388Z,0.30
2019-03-19T03:28:04.592Z,0.30
2019-03-19T03:30:31.411Z,0.30
2019-03-19T03:32:58.311Z,0.30
2019-03-19T03:35:25.215Z,0.30
2019-03-19T03:37:52.038Z,0.30
2019-03-19T03:40:19.381Z,0.40
2019-03-19T03:42:46.358Z,0.40
2019-03-19T03:45:13.698Z,0.40
2019-03-19T03:47:40.712Z,0.30
2019-03-19T03:50:08.273Z,0.40
2019-03-19T03:52:35.099Z,0.40
2019-03-19T03:55:02.239Z,0.30
2019-03-19T03:57:29.132Z,0.20
2019-03-19T03:59:56.166Z,0.20
2019-03-19T04:02:23.059Z,0.10
2019-03-19T04:04:50.154Z,0.20
2019-03-19T04:07:16.992Z,0.20
2019-03-19T04:09:43.992Z,0.20
2019-03-19T04:12:10.790Z,0.40
2019-03-19T04:14:37.623Z,0.50
2019-03-19T04:17:04.511Z,0.50
2019-03-19T04:19:31.342Z,0.50
2019-03-19T04:21:58.181Z,0.40
2019-03-19T04:24:25.130Z,0.30
2019-03-19T04:26:52.148Z,0.30
2019-03-19T04:29:19.184Z,0.20
2019-03-19T04:31:45.987Z,0.20
2019-03-19T04:34:12.789Z,0.20
2019-03-19T04:36:39.636Z,0.20
2019-03-19T04:39:06.879Z,0.20
2019-03-19T04:41:33.679Z,0.30
2019-03-19T04:44:00.514Z,0.30
2019-03-19T04:46:27.324Z,0.30
2019-03-19T04:48:54.118Z,0.30
2019-03-19T04:51:20.947Z,0.20
2019-03-19T04:53:47.740Z,0.10
2019-03-19T04:56:14.546Z,-0.10
2019-03-19T04:58:41.406Z,-0.20
2019-03-19T05:01:08.199Z,-0.20
2019-03-19T05:03:35.006Z,-0.20
2019-03-19T05:06:01.936Z,-0.30
2019-03-19T05:08:28.844Z,-0.30
2019-03-19T05:10:55.638Z,-0.20
2019-03-19T05:13:22.566Z,-0.10
2019-03-19T05:15:49.798Z,-0.10
2019-03-19T05:18:16.607Z,0.00
2019-03-19T05:20:43.761Z,-0.10
2019-03-19T05:23:10.666Z,0.00
2019-03-19T05:25:37.454Z,0.00
2019-03-19T05:28:04.528Z,0.10
2019-03-19T05:30:31.415Z,0.10
2019-03-19T05:32:58.218Z,0.10
2019-03-19T05:35:25.195Z,0.10
2019-03-19T05:37:52.102Z,0.10
2019-03-19T05:40:19.004Z,0.10
2019-03-19T05:42:45.943Z,0.10
2019-03-19T05:45:12.949Z,0.10
2019-03-19T05:47:40.736Z,0.20
2019-03-19T05:50:09.031Z,0.20
2019-03-19T05:52:35.837Z,0.30
2019-03-19T05:55:02.936Z,0.40
2019-03-19T05:57:29.795Z,0.50
2019-03-19T05:59:56.606Z,0.40
2019-03-19T06:02:23.398Z,0.50
2019-03-19T06:04:50.235Z,0.70
2019-03-19T06:07:17.055Z,1.00
2019-03-19T06:09:43.846Z,1.20
2019-03-19T06:12:10.699Z,1.40
2019-03-19T06:14:37.639Z,1.60
2019-03-19T06:17:04.553Z,1.70
2019-03-19T06:19:31.435Z,1.70
2019-03-19T06:21:58.235Z,1.80
2019-03-19T06:24:25.038Z,1.80
2019-03-19T06:26:52.000Z,2.10
2019-03-19T06:29:18.809Z,2.40
2019-03-19T06:31:45.603Z,2.40
2019-03-19T06:34:12.807Z,2.60
2019-03-19T06:36:39.817Z,2.90
2019-03-19T06:39:07.226Z,2.70
2019-03-19T06:41:34.291Z,2.80
2019-03-19T06:44:01.138Z,2.80
2019-03-19T06:46:28.027Z,2.90
2019-03-19T06:48:54.870Z,3.10
2019-03-19T06:51:21.742Z,3.20
2019-03-19T06:53:48.542Z,3.00
2019-03-19T06:56:15.470Z,2.90
2019-03-19T06:58:42.274Z,2.90
2019-03-19T07:01:09.090Z,3.00
2019-03-19T07:03:36.038Z,3.00
2019-03-19T07:06:03.147Z,2.90
2019-03-19T07:08:29.945Z,3.10
2019-03-19T07:10:56.802Z,3.20
2019-03-19T07:13:23.621Z,3.20
2019-03-19T07:15:50.446Z,3.20
2019-03-19T07:18:17.286Z,3.30
2019-03-19T07:20:44.193Z,3.40
2019-03-19T07:23:10.999Z,3.50
2019-03-19T07:25:37.950Z,3.60
2019-03-19T07:28:04.955Z,3.50
2019-03-19T07:30:32.160Z,3.50
2019-03-19T07:32:59.006Z,3.50
2019-03-19T07:35:25.914Z,3.50
2019-03-19T07:37:52.759Z,3.60
2019-03-19T07:40:19.792Z,3.60
2019-03-19T07:42:46.674Z,3.70
2019-03-19T07:45:14.341Z,3.70
2019-03-19T07:47:41.285Z,3.60
2019-03-19T07:50:09.932Z,3.80
2019-03-19T07:52:36.749Z,3.80
2019-03-19T07:55:03.965Z,3.80
2019-03-19T07:57:30.758Z,3.90
2019-03-19T07:59:57.662Z,4.00
2019-03-19T08:02:24.708Z,3.90
2019-03-19T08:04:51.607Z,3.90
2019-03-19T08:07:18.403Z,3.90
2019-03-19T08:09:45.354Z,4.00
2019-03-19T08:12:12.145Z,4.00
2019-03-19T08:14:39.047Z,4.20
2019-03-19T08:17:06.000Z,4.20
2019-03-19T08:19:33.066Z,4.20
2019-03-19T08:22:00.142Z,4.30
2019-03-19T08:24:27.095Z,4.40
2019-03-19T08:26:53.997Z,4.50
2019-03-19T08:29:20.914Z,4.50
2019-03-19T08:31:47.836Z,4.80
2019-03-19T08:34:16.973Z,4.90
2019-03-19T08:36:43.788Z,4.90
2019-03-19T08:39:10.629Z,5.00
2019-03-19T08:41:37.436Z,5.00
2019-03-19T08:44:04.438Z,4.90
2019-03-19T08:46:31.514Z,5.00
2019-03-19T08:48:58.342Z,5.00
2019-03-19T08:51:25.246Z,5.00
2019-03-19T08:53:52.237Z,5.00
2019-03-19T08:56:19.059Z,5.20
2019-03-19T08:58:45.852Z,5.20
2019-03-19T09:01:12.831Z,5.10
2019-03-19T09:03:39.663Z,5.10
2019-03-19T09:06:06.447Z,5.10
2019-03-19T09:08:33.290Z,5.10
2019-03-19T09:11:00.086Z,5.10
2019-03-19T09:13:26.899Z,5.20
2019-03-19T09:15:53.721Z,5.30
2019-03-19T09:18:20.614Z,5.20
2019-03-19T09:20:47.540Z,5.10
2019-03-19T09:23:14.491Z,5.20
2019-03-19T09:25:41.395Z,5.20
2019-03-19T09:28:08.200Z,5.30
2019-03-19T09:30:35.142Z,5.40
2019-03-19T09:33:01.934Z,5.50
2019-03-19T09:35:28.859Z,5.30
2019-03-19T09:37:58.940Z,5.40
2019-03-19T09:40:24.610Z,5.40
2019-03-19T09:42:51.621Z,5.30
2019-03-19T09:45:18.673Z,5.40
2019-03-19T09:47:45.669Z,5.50
2019-03-19T09:50:13.509Z,5.60
2019-03-19T09:52:40.339Z,5.60
2019-03-19T09:55:08.042Z,5.80
2019-03-19T09:57:34.848Z,5.70
2019-03-19T10:00:01.903Z,5.70
2019-03-19T10:02:28.717Z,5.60
2019-03-19T10:04:55.530Z,5.80
2019-03-19T10:07:22.391Z,5.80
2019-03-19T10:09:49.201Z,5.80
2019-03-19T10:12:16.002Z,5.90
2019-03-19T10:14:42.934Z,6.00
2019-03-19T10:17:09.726Z,6.00
2019-03-19T10:19:36.547Z,5.80
2019-03-19T10:22:03.642Z,5.70
2019-03-19T10:24:30.646Z,5.70
2019-03-19T10:26:57.546Z,5.80
2019-03-19T10:29:24.406Z,5.90
2019-03-19T10:31:51.227Z,6.00
2019-03-19T10:34:18.010Z,6.00
2019-03-19T10:36:44.872Z,5.90
2019-03-19T10:39:11.901Z,6.00
2019-03-19T10:41:38.784Z,6.00
2019-03-19T10:44:05.830Z,6.10
2019-03-19T10:46:32.726Z,6.20
2019-03-19T10:48:59.656Z,6.00
2019-03-19T10:51:26.606Z,5.90
2019-03-19T10:53:53.429Z,6.00
2019-03-19T10:56:20.317Z,6.00
2019-03-19T10:58:47.147Z,6.10
2019-03-19T11:01:14.058Z,6.30
2019-03-19T11:03:40.950Z,6.40
2019-03-19T11:06:07.816Z,6.10
2019-03-19T11:08:34.616Z,6.20
2019-03-19T11:11:03.497Z,6.20
2019-03-19T11:13:30.177Z,6.20
2019-03-19T11:15:56.974Z,6.20
2019-03-19T11:18:23.778Z,6.30
2019-03-19T11:20:50.621Z,6.50
2019-03-19T11:23:17.417Z,6.40
2019-03-19T11:25:54.166Z,6.30
2019-03-19T11:28:13.932Z,6.20
2019-03-19T11:30:40.974Z,5.90
2019-03-19T11:33:07.878Z,5.90
2019-03-19T11:35:34.810Z,6.00
2019-03-19T11:38:01.713Z,6.10
2019-03-19T11:40:28.705Z,6.50
2019-03-19T11:42:55.537Z,6.30
2019-03-19T11:45:22.564Z,6.20
2019-03-19T11:47:49.567Z,6.20
2019-03-19T11:50:18.353Z,6.40
2019-03-19T11:52:45.359Z,6.40
2019-03-19T11:55:12.727Z,6.40
2019-03-19T11:57:39.891Z,6.20
2019-03-19T12:00:11.724Z,6.20
2019-03-19T12:02:38.848Z,6.20
2019-03-19T12:05:06.090Z,6.50
2019-03-19T12:07:33.090Z,6.60
2019-03-19T12:09:59.912Z,6.40
2019-03-19T12:12:26.733Z,6.20
2019-03-19T12:14:53.621Z,6.20
2019-03-19T12:17:20.519Z,6.30
2019-03-19T12:19:47.679Z,6.40
2019-03-19T12:22:14.582Z,6.30
2019-03-19T12:24:41.452Z,6.20
2019-03-19T12:27:08.414Z,6.30
2019-03-19T12:29:35.357Z,6.40
2019-03-19T12:32:02.263Z,6.30
2019-03-19T12:34:29.110Z,6.30
2019-03-19T12:36:55.910Z,6.10
2019-03-19T12:39:22.718Z,6.10
2019-03-19T12:41:49.554Z,6.00
2019-03-19T12:44:16.378Z,6.00
2019-03-19T12:46:43.198Z,5.90
2019-03-19T12:49:10.022Z,6.00
2019-03-19T12:51:36.913Z,6.20
2019-03-19T12:54:03.809Z,6.50
2019-03-19T12:56:30.630Z,6.50
2019-03-19T12:58:57.418Z,6.50
2019-03-19T13:01:24.469Z,6.60
2019-03-19T13:03:51.480Z,6.50
2019-03-19T13:06:18.375Z,6.40
2019-03-19T13:08:45.173Z,6.70
2019-03-19T13:11:12.015Z,6.50
2019-03-19T13:13:40.913Z,6.60
2019-03-19T13:16:07.846Z,6.80
2019-03-19T13:18:34.878Z,6.60
2019-03-19T13:21:01.676Z,6.50
2019-03-19T13:23:28.575Z,6.60
2019-03-19T13:25:56.844Z,6.40
2019-03-19T13:28:23.866Z,6.60
2019-03-19T13:30:50.664Z,6.50
2019-03-19T13:33:17.514Z,6.60
2019-03-19T13:35:44.410Z,6.40
2019-03-19T13:38:12.669Z,6.40
2019-03-19T13:40:39.759Z,6.40
2019-03-19T13:43:06.550Z,6.60
2019-03-19T13:45:33.365Z,6.80
2019-03-19T13:48:00.210Z,6.60
2019-03-19T13:50:27.022Z,6.40
2019-03-19T13:52:53.848Z,6.50
2019-03-19T13:55:21.043Z,6.40
2019-03-19T13:57:48.046Z,6.50
2019-03-19T14:00:15.051Z,6.60
2019-03-19T14:02:42.294Z,6.70
2019-03-19T14:05:09.448Z,6.60
2019-03-19T14:07:36.373Z,6.50
2019-03-19T14:10:04.570Z,6.40
2019-03-19T14:12:31.471Z,6.40
2019-03-19T14:14:58.266Z,6.40
2019-03-19T14:17:25.090Z,6.50
2019-03-19T14:19:51.890Z,6.40
2019-03-19T14:22:18.892Z,6.40
2019-03-19T14:24:45.719Z,6.50
2019-03-19T14:27:12.518Z,6.40
2019-03-19T14:29:39.348Z,6.60
2019-03-19T14:32:06.197Z,6.40
2019-03-19T14:34:33.049Z,6.30
2019-03-19T14:36:59.958Z,6.40
2019-03-19T14:39:26.906Z,6.30
2019-03-19T14:41:53.697Z,6.30
2019-03-19T14:44:21.955Z,6.30
2019-03-19T14:46:49.286Z,6.10
2019-03-19T14:49:16.249Z,6.10
2019-03-19T14:51:43.037Z,6.00
2019-03-19T14:54:10.684Z,5.90
2019-03-19T14:56:37.667Z,6.00
2019-03-19T14:59:04.469Z,6.10
2019-03-19T15:01:31.405Z,6.10
2019-03-19T15:03:58.207Z,6.00
2019-03-19T15:06:25.038Z,5.90
2019-03-19T15:08:52.005Z,6.00
2019-03-19T15:11:18.941Z,5.90
2019-03-19T15:13:45.849Z,6.00
2019-03-19T15:16:12.779Z,5.90
2019-03-19T15:18:39.611Z,6.00
2019-03-19T15:21:06.494Z,6.00
2019-03-19T15:23:33.456Z,6.10
2019-03-19T15:26:00.262Z,6.00
2019-03-19T15:28:27.146Z,5.90
2019-03-19T15:30:54.093Z,5.90
2019-03-19T15:33:20.966Z,5.90
2019-03-19T15:35:47.762Z,5.80
2019-03-19T15:38:14.594Z,5.70
2019-03-19T15:40:41.405Z,5.60
2019-03-19T15:43:08.202Z,5.60
2019-03-19T15:45:35.076Z,5.60
2019-03-19T15:48:02.060Z,5.50
2019-03-19T15:50:29.072Z,5.50
2019-03-19T15:52:56.116Z,5.50
2019-03-19T15:55:23.010Z,5.40
2019-03-19T15:57:49.814Z,5.40
2019-03-19T16:00:16.785Z,5.40
2019-03-19T16:02:43.786Z,5.40
2019-03-19T16:05:10.854Z,5.30
2019-03-19T16:07:37.796Z,5.30
2019-03-19T16:10:05.190Z,5.20
2019-03-19T16:12:32.078Z,5.20
2019-03-19T16:14:59.027Z,5.10
2019-03-19T16:17:25.821Z,5.10
2019-03-19T16:19:52.757Z,5.10
2019-03-19T16:22:19.695Z,5.00
2019-03-19T16:24:46.502Z,5.00
2019-03-19T16:27:13.401Z,5.00
2019-03-19T16:29:40.246Z,4.90
2019-03-19T16:32:07.066Z,4.90
2019-03-19T16:34:34.000Z,4.90
2019-03-19T16:37:00.949Z,4.80
2019-03-19T16:39:27.861Z,4.70
2019-03-19T16:41:54.662Z,4.70
2019-03-19T16:44:21.710Z,4.70
2019-03-19T16:46:48.497Z,4.70
2019-03-19T16:49:16.140Z,4.60
2019-03-19T16:51:42.969Z,4.50
2019-03-19T16:54:09.898Z,4.40
2019-03-19T16:56:36.689Z,4.40
2019-03-19T16:59:03.739Z,4.30
2019-03-19T17:01:30.518Z,4.20
2019-03-19T17:03:57.310Z,4.10
2019-03-19T17:06:24.160Z,4.00
2019-03-19T17:08:50.961Z,3.90
2019-03-19T17:11:17.878Z,3.90
2019-03-19T17:13:44.806Z,3.80
2019-03-19T17:16:11.717Z,3.70
2019-03-19T17:18:38.531Z,3.50
2019-03-19T17:21:05.383Z,3.50
2019-03-19T17:23:32.197Z,3.40
2019-03-19T17:25:58.999Z,3.30
2019-03-19T17:28:25.829Z,3.20
2019-03-19T17:30:52.725Z,3.20
2019-03-19T17:33:19.518Z,3.20
2019-03-19T17:35:46.359Z,3.10
2019-03-19T17:38:13.269Z,3.00
2019-03-19T17:40:41.526Z,3.00
2019-03-19T17:43:08.733Z,2.80
2019-03-19T17:45:35.640Z,2.70
2019-03-19T17:48:02.649Z,2.70
2019-03-19T17:50:29.665Z,2.70
2019-03-19T17:52:56.635Z,2.70
2019-03-19T17:55:23.773Z,2.80
2019-03-19T17:57:50.842Z,2.80
2019-03-19T18:00:23.169Z,2.90
2019-03-19T18:02:50.176Z,2.80
2019-03-19T18:05:17.110Z,2.70
2019-03-19T18:07:43.947Z,2.70
2019-03-19T18:10:10.991Z,2.60
2019-03-19T18:12:38.037Z,2.60
2019-03-19T18:15:05.891Z,2.50
2019-03-19T18:17:32.838Z,2.50
2019-03-19T18:19:59.776Z,2.40
2019-03-19T18:22:26.686Z,2.30
2019-03-19T18:24:53.474Z,2.30
2019-03-19T18:27:20.306Z,2.20
2019-03-19T18:29:47.612Z,2.10
2019-03-19T18:32:14.549Z,2.00
2019-03-19T18:34:41.383Z,2.00
2019-03-19T18:37:08.219Z,1.90
2019-03-19T18:39:35.680Z,1.90
2019-03-19T18:42:02.951Z,1.90
2019-03-19T18:44:29.761Z,2.00
2019-03-19T18:46:56.584Z,2.00
2019-03-19T18:49:23.430Z,2.00
2019-03-19T18:51:50.350Z,1.80
2019-03-19T18:54:17.152Z,1.80
2019-03-19T18:56:43.977Z,1.60
2019-03-19T18:59:10.773Z,1.50
2019-03-19T19:01:37.562Z,1.40
2019-03-19T19:04:04.602Z,1.40
2019-03-19T19:06:31.494Z,1.40
2019-03-19T19:08:58.291Z,1.20
2019-03-19T19:11:25.119Z,1.10
2019-03-19T19:13:51.931Z,1.00
2019-03-19T19:16:18.743Z,0.90
2019-03-19T19:18:45.561Z,1.00
2019-03-19T19:21:12.403Z,1.00
2019-03-19T19:23:39.266Z,1.00
2019-03-19T19:26:06.111Z,0.90
2019-03-19T19:28:32.902Z,0.80
2019-03-19T19:30:59.743Z,0.70
2019-03-19T19:33:26.585Z,0.60
2019-03-19T19:35:53.385Z,0.70
2019-03-19T19:38:20.180Z,0.60
2019-03-19T19:40:47.016Z,0.50
2019-03-19T19:43:13.923Z,0.50
2019-03-19T19:45:40.926Z,0.40
2019-03-19T19:48:14.375Z,0.40
2019-03-19T19:50:41.291Z,0.30
2019-03-19T19:53:08.085Z,0.10
2019-03-19T19:55:34.934Z,0.10
2019-03-19T19:58:01.842Z,0.10
2019-03-19T20:00:28.752Z,0.10
2019-03-19T20:02:55.605Z,0.10
2019-03-19T20:05:22.506Z,0.10
2019-03-19T20:07:49.411Z,0.10
2019-03-19T20:10:16.757Z,0.10
2019-03-19T20:12:43.722Z,0.20
2019-03-19T20:15:10.798Z,0.20
2019-03-19T20:17:37.635Z,0.30
2019-03-19T20:20:06.015Z,0.30
2019-03-19T20:22:32.810Z,0.30
2019-03-19T20:24:59.648Z,0.30
2019-03-19T20:27:26.498Z,0.20
2019-03-19T20:29:53.290Z,0.20
2019-03-19T20:32:20.160Z,0.10
2019-03-19T20:34:46.951Z,0.20
2019-03-19T20:37:13.760Z,0.20
2019-03-19T20:39:40.752Z,0.20
2019-03-19T20:42:07.809Z,0.20
2019-03-19T20:44:34.806Z,0.20
2019-03-19T20:47:01.866Z,0.30
2019-03-19T20:49:28.711Z,0.10
2019-03-19T20:51:55.605Z,0.10
2019-03-19T20:54:22.454Z,0.00
2019-03-19T20:56:49.253Z,0.00
2019-03-19T20:59:16.123Z,-0.10
2019-03-19T21:01:43.015Z,-0.20
2019-03-19T21:04:10.034Z,-0.10
2019-03-19T21:06:37.095Z,-0.10
2019-03-19T21:09:06.295Z,-0.10
2019-03-19T21:11:33.198Z,-0.10
2019-03-19T21:14:00.119Z,0.00
2019-03-19T21:16:26.943Z,0.10
2019-03-19T21:18:53.741Z,0.20
2019-03-19T21:21:20.645Z,0.20
2019-03-19T21:23:47.519Z,0.20
2019-03-19T21:26:14.342Z,0.20
2019-03-19T21:28:41.153Z,0.20
2019-03-19T21:31:08.110Z,0.20
2019-03-19T21:33:34.918Z,0.20
2019-03-19T21:36:01.710Z,0.30
2019-03-19T21:38:28.550Z,0.40
2019-03-19T21:40:55.552Z,0.40
2019-03-19T21:43:22.570Z,0.50
2019-03-19T21:45:49.511Z,0.60
2019-03-19T21:48:16.302Z,0.60
2019-03-19T21:50:43.121Z,0.70
2019-03-19T21:53:10.157Z,0.70
2019-03-19T21:55:37.051Z,0.60
2019-03-19T21:58:03.974Z,0.70
2019-03-19T22:00:30.949Z,0.60
2019-03-19T22:02:57.850Z,0.60
2019-03-19T22:05:24.648Z,0.50
2019-03-19T22:07:51.587Z,0.70
2019-03-19T22:10:19.089Z,0.80
2019-03-19T22:12:46.118Z,1.00
2019-03-19T22:15:14.911Z,1.00
2019-03-19T22:17:42.041Z,1.10
2019-03-19T22:20:09.203Z,1.10
2019-03-19T22:22:36.154Z,1.10
2019-03-19T22:25:03.708Z,1.10
2019-03-19T22:27:30.550Z,1.10
2019-03-19T22:29:57.562Z,1.10
2019-03-19T22:32:24.452Z,1.10
2019-03-19T22:34:51.271Z,1.20
2019-03-19T22:37:18.117Z,1.30
2019-03-19T22:39:45.137Z,1.20
2019-03-19T22:42:12.057Z,1.20
2019-03-19T22:44:38.995Z,1.20
2019-03-19T22:47:05.908Z,1.20
2019-03-19T22:49:32.706Z,1.10
2019-03-19T22:51:59.649Z,1.10
2019-03-19T22:54:26.470Z,1.10
2019-03-19T22:56:53.370Z,1.10
2019-03-19T22:59:20.215Z,1.10
2019-03-19T23:01:47.149Z,1.20
2019-03-19T23:04:14.042Z,1.20
2019-03-19T23:06:40.895Z,1.20
2019-03-19T23:09:07.918Z,1.20
2019-03-19T23:11:34.925Z,1.10
2019-03-19T23:14:02.018Z,1.10
2019-03-19T23:16:28.823Z,1.00
2019-03-19T23:18:55.714Z,1.10
2019-03-19T23:21:22.758Z,1.00
2019-03-19T23:23:49.619Z,1.00
2019-03-19T23:26:16.626Z,0.90
2019-03-19T23:28:43.464Z,0.90
2019-03-19T23:31:10.453Z,0.90
2019-03-19T23:33:37.252Z,0.90
2019-03-19T23:36:04.310Z,0.90
2019-03-19T23:38:31.134Z,1.00
2019-03-19T23:40:57.955Z,1.00
2019-03-19T23:43:24.911Z,1.00
2019-03-19T23:45:51.734Z,1.10
2019-03-19T23:48:18.559Z,1.10
2019-03-19T23:50:45.390Z,1.10
2019-03-19T23:53:12.282Z,1.10
2019-03-19T23:55:39.102Z,1.10
2019-03-19T23:58:05.947Z,1.10
